Terminal Aerodrome Forecast
Issued by NWS

Home | Current Version | Previous Version | Text Only | Print | Product List | Glossary On
Versions: 1 2 3 4 5 6 7 8 9 10 11 12 13 14 15 16 17 18 19 20 21 22 23 24 25 26 27 28
000
FTUS45 KGJT 020113 AAD
TAFASE
TAF AMD
KASE 020113Z 0201/0224 12010G15KT P6SM VCSH FEW040 OVC050
     FM020900 16004KT P6SM OVC070
     FM021600 24004KT P6SM OVC050=

USA.gov is the U.S. government's official web portal to all federal, state and local government web resources and services.